Time;durP1;ratioP1;P1;durP2;ratioP2;P2;SDS_P1;SDS_P2;PMS_P1;PMS_P2;Temp;Humidity;BMP_temperature;BMP_pressure;BME280_temperature;BME280_humidity;BME280_pressure;Samples;Min_cycle;Max_cycle;Signal;HPM_P1;HPM_P2
2021/07/08 00:01:23;;;;;;;4.68;4.20;;;;;;;18.06;57.49;101864.41;10416790;28;20061;-67
2021/07/08 00:06:23;;;;;;;12.82;5.03;;;;;;;17.96;57.26;101853.94;10417027;28;20040;-67
2021/07/08 00:11:25;;;;;;;5.53;4.53;;;;;;;17.97;57.42;101860.28;10415609;28;20119;-68
2021/07/08 00:16:26;;;;;;;10.70;4.78;;;;;;;17.98;57.73;101879.25;10414503;28;20121;-67
2021/07/08 00:21:26;;;;;;;9.70;3.83;;;;;;;17.96;57.44;101866.81;10415462;28;20034;-68
2021/07/08 00:26:26;;;;;;;5.30;3.50;;;;;;;17.77;57.12;101842.13;10397282;28;20033;-67
2021/07/08 00:31:27;;;;;;;6.13;4.68;;;;;;;17.91;57.24;101877.63;10381904;28;20115;-67
2021/07/08 00:36:29;;;;;;;9.32;4.65;;;;;;;16.59;57.02;101661.09;10414549;28;20511;-68
2021/07/08 00:41:29;;;;;;;21.17;4.68;;;;;;;17.88;57.50;101887.13;10398125;28;20107;-67
2021/07/08 00:46:30;;;;;;;8.65;4.65;;;;;;;17.84;56.88;101883.16;10415809;28;20600;-67
2021/07/08 00:51:30;;;;;;;12.07;4.80;;;;;;;16.68;57.53;101719.97;10415440;28;20077;-68
2021/07/08 00:56:34;;;;;;;4.57;4.18;;;;;;;17.60;57.65;101884.75;10397004;28;20061;-68
2021/07/08 01:01:35;;;;;;;6.22;5.15;;;;;;;17.44;57.19;101854.06;10414252;28;20026;-68
2021/07/08 01:06:40;;;;;;;10.93;5.38;;;;;;;17.54;58.35;101902.06;10414117;28;20120;-69
2021/07/08 01:11:42;;;;;;;13.40;5.63;;;;;;;17.71;58.57;101895.00;10414372;28;20030;-68
2021/07/08 01:16:42;;;;;;;3.70;3.40;;;;;;;18.01;58.06;101891.66;10413753;28;20107;-68
2021/07/08 01:21:43;;;;;;;15.70;5.05;;;;;;;18.22;57.38;101888.53;10397661;28;20083;-68
2021/07/08 01:26:43;;;;;;;9.45;5.28;;;;;;;18.33;57.11;101898.75;10396907;28;20048;-68
2021/07/08 01:31:43;;;;;;;7.75;4.53;;;;;;;18.56;57.51;101900.03;10405066;28;20034;-68
2021/07/08 01:36:45;;;;;;;7.57;3.97;;;;;;;18.38;56.93;101867.94;10422847;28;20029;-68
2021/07/08 01:41:46;;;;;;;3.95;3.65;;;;;;;18.53;57.17;101890.34;10421266;28;20072;-68
2021/07/08 01:46:46;;;;;;;3.97;3.67;;;;;;;18.77;56.75;101907.03;10422691;28;20120;-68
2021/07/08 01:51:47;;;;;;;7.95;4.70;;;;;;;18.70;57.35;101904.31;10420759;28;20060;-67
2021/07/08 01:56:48;;;;;;;8.35;5.25;;;;;;;18.82;57.24;101898.94;10420979;28;20064;-68
2021/07/08 02:01:48;;;;;;;12.07;4.38;;;;;;;18.78;57.18;101895.81;10421414;28;20103;-67
2021/07/08 02:06:49;;;;;;;5.95;4.30;;;;;;;17.32;57.30;101630.50;10421405;28;20069;-68
2021/07/08 02:11:49;;;;;;;5.35;4.68;;;;;;;19.01;57.15;101881.38;10420411;28;20457;-67
2021/07/08 02:16:49;;;;;;;7.07;3.83;;;;;;;19.01;57.01;101873.16;10420932;28;20045;-68
2021/07/08 02:21:50;;;;;;;8.27;5.00;;;;;;;18.67;57.53;101880.09;10419571;28;20029;-68
2021/07/08 02:26:50;;;;;;;4.80;4.38;;;;;;;18.65;58.51;101904.16;10419779;28;20117;-67
2021/07/08 02:31:51;;;;;;;7.40;4.20;;;;;;;18.62;58.67;101898.28;10420147;28;20041;-69
2021/07/08 02:36:51;;;;;;;9.40;5.85;;;;;;;18.57;57.97;101877.03;10420194;28;20061;-68
2021/07/08 02:41:51;;;;;;;8.20;4.82;;;;;;;18.50;58.78;101876.25;10418670;28;20520;-68
2021/07/08 02:46:52;;;;;;;6.38;4.85;;;;;;;18.46;59.65;101894.22;10420617;28;20045;-69
2021/07/08 02:51:52;;;;;;;6.63;5.47;;;;;;;18.48;59.56;101881.97;10419689;28;20030;-68
2021/07/08 02:56:53;;;;;;;7.10;5.22;;;;;;;17.61;59.03;101728.41;10417964;28;20139;-69
2021/07/08 03:01:53;;;;;;;12.77;4.57;;;;;;;18.39;60.47;101883.31;10401834;28;20087;-68
2021/07/08 03:06:53;;;;;;;9.38;4.78;;;;;;;18.55;60.14;101881.91;10419230;28;20037;-68
2021/07/08 03:11:54;;;;;;;6.38;5.68;;;;;;;18.71;59.44;101888.69;10419648;28;20061;-68
2021/07/08 03:16:54;;;;;;;6.72;4.88;;;;;;;18.65;59.13;101892.34;10401362;28;20132;-69
2021/07/08 03:21:55;;;;;;;8.05;5.45;;;;;;;18.65;59.19;101895.09;10417380;28;20048;-68
2021/07/08 03:26:55;;;;;;;6.18;5.50;;;;;;;18.69;58.70;101894.41;10417376;28;20044;-69
2021/07/08 03:31:55;;;;;;;6.00;4.60;;;;;;;18.65;59.04;101890.44;10418250;28;20040;-68
2021/07/08 03:36:56;;;;;;;6.00;5.50;;;;;;;18.68;58.88;101897.38;10416893;28;20037;-68
2021/07/08 03:41:56;;;;;;;5.70;4.72;;;;;;;18.68;58.87;101900.13;10416420;28;20057;-68
2021/07/08 03:46:57;;;;;;;5.45;4.15;;;;;;;18.45;58.82;101852.25;10416288;28;20481;-67
2021/07/08 03:51:57;;;;;;;4.18;3.80;;;;;;;18.90;58.60;101906.03;10400209;28;20072;-67
2021/07/08 03:56:57;;;;;;;7.95;3.97;;;;;;;18.99;58.40;101890.94;10416400;28;20508;-68
2021/07/08 04:01:58;;;;;;;9.13;4.93;;;;;;;19.21;58.40;101905.88;10416268;28;20030;-68
2021/07/08 04:06:58;;;;;;;4.75;3.97;;;;;;;19.22;57.83;101885.56;10416956;28;20437;-68
2021/07/08 04:11:59;;;;;;;4.30;3.90;;;;;;;19.59;57.92;101915.72;10416647;28;20054;-68
2021/07/08 04:16:59;;;;;;;10.05;4.22;;;;;;;19.05;57.75;101807.69;10398895;28;20113;-68
2021/07/08 04:22:00;;;;;;;5.13;3.67;;;;;;;19.70;57.67;101884.72;10416467;28;20044;-68
2021/07/08 04:27:00;;;;;;;5.50;4.05;;;;;;;19.14;57.29;101776.06;10415301;28;20057;-68
2021/07/08 04:32:00;;;;;;;4.80;4.15;;;;;;;19.94;57.32;101912.25;10416096;28;20041;-68
2021/07/08 04:37:02;;;;;;;4.28;3.97;;;;;;;19.11;57.35;101748.22;10414321;28;20477;-68
2021/07/08 04:42:03;;;;;;;6.65;3.60;;;;;;;20.14;57.36;101901.78;10398603;28;20064;-68
2021/07/08 04:47:04;;;;;;;3.85;3.55;;;;;;;20.29;56.86;101914.25;10415345;28;20033;-68
2021/07/08 04:52:05;;;;;;;7.40;4.05;;;;;;;20.28;57.42;101924.41;10415686;28;20033;-68
2021/07/08 04:57:06;;;;;;;13.68;4.20;;;;;;;19.44;56.82;101775.22;10413264;28;20481;-70
2021/07/08 05:02:06;;;;;;;9.95;3.65;;;;;;;20.52;56.58;101930.81;10413627;28;20475;-69
2021/07/08 05:07:06;;;;;;;6.95;3.80;;;;;;;20.59;56.29;101941.69;10397292;28;20464;-68
2021/07/08 05:12:07;;;;;;;3.97;3.65;;;;;;;20.46;56.29;101911.63;10413876;28;20037;-67
2021/07/08 05:17:07;;;;;;;5.85;3.25;;;;;;;20.87;55.98;101950.06;10396955;28;20033;-68
2021/07/08 05:22:08;;;;;;;3.80;3.50;;;;;;;21.10;55.67;101959.38;10397133;28;20037;-68
2021/07/08 05:27:12;;;;;;;3.42;3.13;;;;;;;21.32;55.32;101973.34;10414761;28;20512;-69
2021/07/08 05:32:15;;;;;;;4.18;3.88;;;;;;;21.58;54.97;101977.50;10397340;28;20030;-68
2021/07/08 05:37:15;;;;;;;4.65;4.07;;;;;;;21.59;55.22;101955.19;10396913;28;20381;-69
2021/07/08 05:42:16;;;;;;;12.70;4.80;;;;;;;21.70;54.35;101961.75;10413955;28;20096;-68
2021/07/08 05:47:16;;;;;;;7.80;4.22;;;;;;;22.48;54.71;102001.50;10380477;28;20124;-69
2021/07/08 05:52:17;;;;;;;9.85;4.97;;;;;;;24.40;50.04;101924.25;10412873;28;20037;-68
2021/07/08 05:57:17;;;;;;;8.43;6.03;;;;;;;25.94;47.35;101948.84;10411942;28;20111;-69
2021/07/08 06:02:18;;;;;;;6.78;4.25;;;;;;;26.43;47.00;101990.00;10413717;28;20121;-68
2021/07/08 06:07:18;;;;;;;8.65;4.18;;;;;;;27.44;45.12;102001.22;10412568;28;20572;-68
2021/07/08 06:12:19;;;;;;;3.70;3.40;;;;;;;28.00;44.52;101990.66;10414306;28;20038;-69
2021/07/08 06:17:19;;;;;;;4.10;3.80;;;;;;;28.57;42.46;101985.50;10417230;28;20073;-67
2021/07/08 06:22:20;;;;;;;9.18;4.28;;;;;;;29.38;42.34;101997.72;10420850;28;20033;-68
2021/07/08 06:27:20;;;;;;;3.75;3.42;;;;;;;29.45;40.25;102019.69;10418619;28;20075;-68
2021/07/08 06:32:20;;;;;;;3.92;3.35;;;;;;;29.33;40.79;102011.75;10420079;28;20038;-68
2021/07/08 06:37:21;;;;;;;4.10;2.90;;;;;;;29.75;39.42;102028.84;10418655;28;20405;-68
2021/07/08 06:42:21;;;;;;;5.30;3.85;;;;;;;28.20;42.43;102028.66;10419079;28;20080;-69
2021/07/08 06:47:22;;;;;;;3.58;3.28;;;;;;;28.61;42.11;102028.38;10418247;28;20037;-67
2021/07/08 06:52:22;;;;;;;4.32;4.03;;;;;;;26.60;42.82;102040.56;10419511;28;20029;-67
2021/07/08 06:57:23;;;;;;;7.45;3.97;;;;;;;25.17;45.31;102029.00;10417481;28;20441;-67
2021/07/08 07:02:23;;;;;;;2.97;2.78;;;;;;;24.80;45.84;102038.16;10417860;28;20037;-68
2021/07/08 07:07:24;;;;;;;3.08;2.78;;;;;;;24.53;47.31;102029.88;10414987;28;20396;-68
2021/07/08 07:12:24;;;;;;;2.92;2.70;;;;;;;25.15;46.74;102058.09;10417860;28;20029;-68
2021/07/08 07:17:25;;;;;;;5.45;2.80;;;;;;;27.61;44.00;102048.19;10405120;28;20400;-68
2021/07/08 07:22:25;;;;;;;3.72;3.42;;;;;;;29.78;41.36;102037.44;10377189;28;20037;-69
2021/07/08 07:27:25;;;;;;;13.90;3.90;;;;;;;30.50;39.42;102030.78;10376382;28;20128;-68
2021/07/08 07:32:26;;;;;;;12.60;3.92;;;;;;;30.76;40.56;102025.56;10375246;28;20117;-68
2021/07/08 07:37:26;;;;;;;5.03;3.90;;;;;;;31.16;38.13;102026.81;10413084;28;20444;-68
2021/07/08 07:42:27;;;;;;;4.15;3.80;;;;;;;31.33;37.14;102006.63;10415469;28;20220;-70
2021/07/08 07:47:30;;;;;;;8.63;3.30;;;;;;;32.01;36.01;102055.31;10415184;28;20510;-70
2021/07/08 07:52:30;;;;;;;4.07;3.70;;;;;;;32.07;35.94;102003.63;10370003;28;20056;-68
2021/07/08 07:57:33;;;;;;;6.80;4.05;;;;;;;31.95;36.33;102039.75;10421375;28;20033;-68
2021/07/08 08:08:30;;;;;;;2.35;2.25;;;;;;;31.96;35.59;101962.97;10702823;23;20405;-74
2021/07/08 08:13:32;;;;;;;3.92;3.45;;;;;;;31.99;35.16;102031.56;10363515;28;20033;-75
2021/07/08 08:18:33;;;;;;;5.70;3.60;;;;;;;32.19;36.99;102028.25;10364777;28;20103;-76
2021/07/08 08:23:33;;;;;;;3.35;3.05;;;;;;;32.11;33.71;102021.44;10349340;28;20096;-76
2021/07/08 08:28:34;;;;;;;4.45;3.13;;;;;;;32.64;34.60;102017.06;10381404;28;20057;-76
2021/07/08 08:33:34;;;;;;;3.65;3.40;;;;;;;31.54;35.14;102025.81;10350597;28;20046;-75
2021/07/08 08:38:35;;;;;;;4.70;3.60;;;;;;;31.21;35.82;102043.50;10360622;28;20061;-75
2021/07/08 08:43:36;;;;;;;2.75;2.58;;;;;;;31.40;33.16;102039.81;10368404;28;20084;-78
2021/07/08 09:00:25;;;;;;;4.13;3.80;;;;;;;31.10;37.73;102030.84;10758830;23;20137;-87
2021/07/08 09:08:55;;;;;;;6.00;4.18;;;;;;;30.69;36.73;102014.78;10484072;28;20462;-83
2021/07/08 09:14:05;;;;;;;4.38;3.90;;;;;;;31.85;35.95;102048.38;10490649;28;20138;-81
2021/07/08 09:19:05;;;;;;;17.85;3.97;;;;;;;32.16;34.89;102040.97;10513483;28;20056;-79
2021/07/08 09:24:25;;;;;;;2.33;2.20;;;;;;;32.11;36.30;102040.25;10525947;28;20096;-78
2021/07/08 09:29:27;;;;;;;4.55;3.70;;;;;;;32.27;33.59;102032.28;10491530;28;20072;-81
2021/07/08 09:34:30;;;;;;;4.00;3.70;;;;;;;31.88;35.41;102026.19;10494582;28;20091;-78
2021/07/08 09:39:50;;;;;;;9.25;4.22;;;;;;;30.57;37.24;101951.00;10492991;28;20055;-81
2021/07/08 09:44:51;;;;;;;6.45;3.17;;;;;;;30.12;36.32;102000.94;10502373;28;20032;-82
2021/07/08 09:49:51;;;;;;;3.92;3.63;;;;;;;29.81;36.90;101914.00;10509896;28;20467;-82
2021/07/08 09:59:56;;;;;;;11.40;4.25;;;;;;;30.56;37.39;101948.50;10520693;28;20162;-78
2021/07/08 10:04:59;;;;;;;16.88;3.92;;;;;;;30.41;38.10;102072.59;10519457;28;20148;-78
2021/07/08 10:10:03;;;;;;;5.07;3.05;;;;;;;29.33;37.89;101925.25;10326539;27;20195;-80
2021/07/08 10:15:08;;;;;;;3.45;3.25;;;;;;;30.59;37.13;102076.47;10401124;28;20103;-80
2021/07/08 10:20:11;;;;;;;6.75;3.15;;;;;;;29.32;37.64;102031.56;10375884;28;20086;-81
2021/07/08 10:25:12;;;;;;;9.95;4.53;;;;;;;28.95;39.69;102064.56;10375094;28;20590;-78
2021/07/08 10:30:14;;;;;;;6.18;4.60;;;;;;;29.60;39.53;102089.31;10381941;28;20033;-78
2021/07/08 10:35:14;;;;;;;8.57;4.78;;;;;;;31.61;37.24;102108.25;10374326;28;20543;-82
2021/07/08 10:40:26;;;;;;;7.03;6.28;;;;;;;32.86;36.01;102117.19;10367611;28;20058;-83
2021/07/08 10:45:38;;;;;;;4.07;3.67;;;;;;;33.47;36.27;102121.22;10376670;28;20061;-80
2021/07/08 10:50:49;;;;;;;3.45;3.22;;;;;;;34.09;33.75;102099.78;10376619;28;20053;-85
2021/07/08 10:55:56;;;;;;;3.17;2.97;;;;;;;34.54;32.25;102103.13;10372978;28;20037;-73
2021/07/08 11:00:56;;;;;;;3.08;1.92;;;;;;;34.89;30.11;102091.81;10369718;28;20042;-74
2021/07/08 11:05:57;;;;;;;2.35;2.20;;;;;;;35.37;30.11;102087.88;10370421;28;20089;-77
2021/07/08 11:10:57;;;;;;;2.72;2.60;;;;;;;34.98;29.35;102052.41;10370890;28;20070;-78
2021/07/08 11:15:58;;;;;;;4.43;3.45;;;;;;;34.80;30.65;102063.69;10370210;28;20422;-78
2021/07/08 11:20:58;;;;;;;2.38;1.95;;;;;;;34.17;31.82;102063.22;10374299;28;20065;-81
2021/07/08 11:25:59;;;;;;;3.25;3.05;;;;;;;33.95;33.57;102064.19;10373097;28;20422;-82
2021/07/08 11:31:06;;;;;;;2.35;2.15;;;;;;;33.77;35.10;102060.53;10367679;28;20547;-83
2021/07/08 11:36:11;;;;;;;3.78;3.38;;;;;;;34.08;32.69;102065.22;10380325;28;20099;-85
2021/07/08 11:41:14;;;;;;;3.72;3.47;;;;;;;33.45;33.35;101966.25;10393033;28;20099;-84
2021/07/08 11:46:14;;;;;;;4.22;2.92;;;;;;;33.74;33.05;102027.47;10380854;28;20037;-78
2021/07/08 11:51:37;;;;;;;6.70;3.97;;;;;;;34.26;33.73;102035.94;10370343;28;20064;-84
2021/07/08 11:56:38;;;;;;;4.82;3.55;;;;;;;32.84;34.06;102055.00;10383803;28;20029;-88
2021/07/08 12:01:40;;;;;;;5.25;4.20;;;;;;;32.06;34.72;102062.75;10386374;28;20389;-87
2021/07/08 12:06:40;;;;;;;13.18;3.97;;;;;;;31.98;35.93;102072.75;10392590;28;20069;-89
2021/07/08 12:11:42;;;;;;;8.95;4.18;;;;;;;31.11;37.38;101956.13;10390893;28;20327;-85
2021/07/08 12:16:44;;;;;;;5.22;3.70;;;;;;;31.71;34.56;102024.00;10394174;28;20113;-83
2021/07/08 12:21:51;;;;;;;4.75;2.90;;;;;;;32.55;35.44;102075.91;10395927;28;20038;-85
2021/07/08 12:26:59;;;;;;;3.50;3.20;;;;;;;33.63;34.67;102073.84;10372915;28;20037;-86
2021/07/08 12:32:01;;;;;;;11.35;3.40;;;;;;;34.25;34.34;102053.16;10375605;28;20037;-83
2021/07/08 12:37:17;;;;;;;3.55;3.22;;;;;;;33.70;37.88;102074.22;10377625;28;20042;-81
2021/07/08 12:42:18;;;;;;;4.13;3.33;;;;;;;32.27;34.74;102018.28;10384335;28;20088;-80
2021/07/08 12:47:19;;;;;;;4.68;3.60;;;;;;;32.86;34.50;102031.03;10361472;28;20132;-79
2021/07/08 12:52:20;;;;;;;8.48;4.45;;;;;;;32.37;36.02;102079.69;10372946;28;20104;-73
2021/07/08 12:57:21;;;;;;;4.25;3.42;;;;;;;32.58;35.09;102080.91;10366403;28;20030;-72
2021/07/08 13:02:32;;;;;;;4.28;3.97;;;;;;;32.10;35.78;102041.38;10345020;28;20045;-73
2021/07/08 13:07:37;;;;;;;17.60;3.70;;;;;;;33.33;35.28;102083.97;10362863;28;20143;-73
2021/07/08 13:12:41;;;;;;;9.57;4.38;;;;;;;33.79;34.84;102091.94;10365982;28;20048;-72
2021/07/08 13:17:42;;;;;;;4.80;4.32;;;;;;;34.02;33.30;102080.59;10368335;28;20064;-71
2021/07/08 13:22:47;;;;;;;6.13;3.35;;;;;;;34.02;33.25;102095.47;10367140;28;20101;-72
2021/07/08 13:27:52;;;;;;;3.97;3.33;;;;;;;33.61;35.70;102090.22;10368279;28;20066;-72
2021/07/08 13:33:10;;;;;;;3.85;3.55;;;;;;;32.36;35.88;101997.56;10369380;28;20100;-78
2021/07/08 13:38:19;;;;;;;4.03;3.72;;;;;;;32.19;37.14;102092.72;10381027;28;20037;-79
2021/07/08 13:43:19;;;;;;;4.20;3.50;;;;;;;32.40;35.57;102090.28;10374327;28;20061;-78
2021/07/08 13:48:19;;;;;;;7.68;4.43;;;;;;;32.51;34.52;102069.28;10378679;28;20042;-79
2021/07/08 13:53:20;;;;;;;5.25;4.35;;;;;;;32.39;33.56;102078.25;10383225;28;20041;-77
2021/07/08 13:58:21;;;;;;;3.58;3.28;;;;;;;31.52;33.24;102089.69;10393226;28;20355;-78
2021/07/08 14:03:22;;;;;;;4.18;3.88;;;;;;;31.01;34.18;102067.09;10401039;28;20048;-78
2021/07/08 14:08:25;;;;;;;4.25;3.92;;;;;;;31.27;33.69;102069.41;10394339;28;20058;-78
2021/07/08 14:13:27;;;;;;;3.42;2.70;;;;;;;31.09;34.46;102085.16;10388007;28;20034;-77
2021/07/08 14:18:31;;;;;;;2.90;2.67;;;;;;;30.98;33.67;102067.75;10387794;28;20179;-79
2021/07/08 14:23:32;;;;;;;3.85;3.55;;;;;;;31.09;35.57;102079.56;10382964;28;20069;-79
2021/07/08 14:28:32;;;;;;;4.40;3.35;;;;;;;30.94;35.10;102055.47;10336540;28;20053;-80
2021/07/08 14:33:37;;;;;;;3.88;3.58;;;;;;;31.06;34.29;102074.59;10384585;28;20460;-78
2021/07/08 14:38:41;;;;;;;3.80;3.40;;;;;;;30.87;35.42;102076.63;10384969;28;20061;-78
2021/07/08 14:43:59;;;;;;;10.52;4.45;;;;;;;30.72;34.59;102030.13;10400646;28;20458;-78
2021/07/08 14:49:00;;;;;;;5.78;3.97;;;;;;;30.84;34.32;102063.25;10376628;28;20137;-79
2021/07/08 14:54:01;;;;;;;4.57;3.67;;;;;;;30.76;35.62;102053.53;10360181;28;20561;-80
2021/07/08 14:59:01;;;;;;;3.45;3.20;;;;;;;30.99;35.21;102097.38;10379134;28;20409;-80
2021/07/08 15:04:02;;;;;;;3.88;3.42;;;;;;;30.95;36.00;102103.88;10374978;28;20464;-80
2021/07/08 15:09:03;;;;;;;5.10;4.60;;;;;;;30.96;34.80;102088.75;10375280;28;20049;-79
2021/07/08 15:14:03;;;;;;;3.17;2.88;;;;;;;30.37;36.37;102098.66;10371818;28;20086;-79
2021/07/08 15:19:04;;;;;;;3.35;3.05;;;;;;;29.92;36.96;102101.75;10371916;28;20026;-79
2021/07/08 15:24:04;;;;;;;3.22;3.03;;;;;;;29.37;35.68;102090.94;10373007;28;20460;-78
2021/07/08 15:29:05;;;;;;;3.72;3.47;;;;;;;29.39;35.52;102099.88;10371469;28;20408;-79
2021/07/08 15:34:08;;;;;;;5.22;2.92;;;;;;;29.49;36.42;102101.72;10368861;28;20061;-79
2021/07/08 15:39:10;;;;;;;4.03;3.28;;;;;;;29.51;36.32;102079.06;10368559;28;20057;-79
2021/07/08 15:44:10;;;;;;;3.70;3.15;;;;;;;29.03;36.72;101961.91;10370088;28;20461;-78
2021/07/08 15:49:11;;;;;;;2.80;2.60;;;;;;;28.99;36.08;102078.75;10372895;28;20037;-79
2021/07/08 15:54:12;;;;;;;2.42;2.33;;;;;;;28.98;36.84;102089.09;10371246;28;20129;-78
2021/07/08 15:59:13;;;;;;;2.65;2.45;;;;;;;28.48;37.63;102085.59;10368697;28;20068;-78
2021/07/08 16:04:13;;;;;;;2.92;2.72;;;;;;;28.44;37.61;102062.22;10354312;28;20133;-78
2021/07/08 16:09:14;;;;;;;3.88;3.53;;;;;;;28.88;37.17;102080.81;10353859;28;20061;-78
2021/07/08 16:14:15;;;;;;;3.00;2.80;;;;;;;28.51;37.09;102073.88;10371783;28;20456;-78
2021/07/08 16:19:15;;;;;;;3.45;3.15;;;;;;;28.58;37.78;102078.28;10384249;28;20096;-77
2021/07/08 16:24:16;;;;;;;6.32;2.45;;;;;;;28.58;38.33;102078.28;10373239;28;20041;-78
2021/07/08 16:29:16;;;;;;;4.45;3.30;;;;;;;27.74;37.66;102072.63;10386556;28;20469;-79
2021/07/08 16:34:17;;;;;;;4.05;2.63;;;;;;;26.58;39.42;102059.47;10377862;28;20092;-78
2021/07/08 16:39:21;;;;;;;3.28;3.05;;;;;;;26.25;41.35;102071.88;10373309;28;20061;-79
2021/07/08 16:44:21;;;;;;;3.55;3.25;;;;;;;26.15;40.96;102069.09;10358132;28;20034;-78
2021/07/08 16:49:22;;;;;;;3.95;3.53;;;;;;;25.89;41.65;102070.97;10376338;28;20486;-79
2021/07/08 16:54:22;;;;;;;8.38;3.15;;;;;;;25.34;41.95;102025.22;10358164;28;20083;-78
2021/07/08 16:59:22;;;;;;;10.38;2.75;;;;;;;25.57;41.79;102069.16;10377313;28;20065;-78
2021/07/08 17:04:23;;;;;;;6.50;3.65;;;;;;;25.79;42.27;102084.78;10382860;28;20030;-78
2021/07/08 17:09:34;;;;;;;3.20;2.92;;;;;;;25.77;41.26;102087.81;10387688;28;20129;-77
2021/07/08 17:14:36;;;;;;;3.33;3.00;;;;;;;26.04;41.78;102081.28;10384244;28;20381;-78
2021/07/08 17:19:37;;;;;;;3.90;3.05;;;;;;;25.97;41.37;102075.97;10359563;28;20050;-77
2021/07/08 17:24:37;;;;;;;4.20;2.97;;;;;;;25.74;41.25;102068.94;10380085;28;20034;-79
2021/07/08 17:29:38;;;;;;;2.92;2.78;;;;;;;25.55;40.99;102071.34;10378823;28;20030;-79
2021/07/08 17:34:38;;;;;;;4.80;3.25;;;;;;;25.13;41.97;102061.13;10378976;28;20113;-78
2021/07/08 17:39:40;;;;;;;4.60;3.58;;;;;;;25.20;41.64;102083.91;10384594;28;20049;-78
2021/07/08 17:44:41;;;;;;;2.90;2.60;;;;;;;24.69;42.04;102043.88;10384375;28;20037;-78
2021/07/08 17:49:42;;;;;;;6.47;2.72;;;;;;;24.72;42.19;102066.34;10363226;28;20050;-78
2021/07/08 17:54:42;;;;;;;2.25;2.15;;;;;;;24.36;42.63;102054.91;10381083;28;20494;-78
2021/07/08 17:59:43;;;;;;;3.63;3.33;;;;;;;24.35;43.56;102080.09;10379916;28;20038;-78
2021/07/08 18:04:43;;;;;;;5.68;3.83;;;;;;;24.14;44.85;102093.72;10382900;28;20045;-78
2021/07/08 18:09:44;;;;;;;4.53;3.13;;;;;;;23.81;45.60;102083.66;10377636;28;20512;-78
2021/07/08 18:14:47;;;;;;;4.40;3.75;;;;;;;23.65;45.60;102088.13;10379069;28;20132;-78
2021/07/08 18:19:47;;;;;;;4.80;3.58;;;;;;;23.66;45.47;102103.59;10377301;28;20105;-78
2021/07/08 18:24:47;;;;;;;3.53;3.28;;;;;;;23.44;44.95;102073.16;10376417;28;20399;-79
2021/07/08 18:29:48;;;;;;;6.15;3.50;;;;;;;23.59;44.82;102091.91;10376222;28;20100;-77
2021/07/08 18:34:49;;;;;;;3.65;2.30;;;;;;;23.56;44.78;102102.63;10375474;28;20476;-79
2021/07/08 18:39:49;;;;;;;2.45;2.25;;;;;;;23.37;44.36;102115.91;10379440;28;20117;-70
2021/07/08 18:44:50;;;;;;;3.85;2.42;;;;;;;23.32;44.42;102121.34;10371631;28;20478;-71
2021/07/08 18:49:50;;;;;;;2.30;2.20;;;;;;;23.24;44.25;102121.81;10371760;28;20046;-71
2021/07/08 18:54:51;;;;;;;3.30;3.00;;;;;;;23.04;44.33;102136.09;10370425;28;20121;-72
2021/07/08 18:59:51;;;;;;;2.75;1.88;;;;;;;22.73;44.01;102135.56;10369763;28;20057;-71
2021/07/08 19:04:52;;;;;;;1.95;1.85;;;;;;;22.61;43.44;102146.66;10369307;28;20065;-73
2021/07/08 19:09:53;;;;;;;2.90;2.70;;;;;;;22.47;44.10;102146.16;10371956;28;20137;-70
2021/07/08 19:14:53;;;;;;;3.13;2.90;;;;;;;22.18;45.40;102133.44;10371506;28;20100;-71
2021/07/08 19:19:56;;;;;;;3.00;2.80;;;;;;;22.36;45.90;102154.47;10370165;28;20041;-72
2021/07/08 19:24:57;;;;;;;9.23;3.47;;;;;;;22.32;45.73;102176.19;10370694;28;20030;-72
2021/07/08 19:29:57;;;;;;;5.47;3.65;;;;;;;22.21;46.12;102163.28;10369376;28;20350;-71
2021/07/08 19:34:58;;;;;;;3.85;3.40;;;;;;;22.08;46.11;102152.47;10367743;28;20089;-70
2021/07/08 19:39:58;;;;;;;3.08;2.78;;;;;;;21.96;46.22;102169.91;10366853;28;20164;-71
2021/07/08 19:44:59;;;;;;;12.32;2.78;;;;;;;21.58;46.68;102145.63;10364204;28;20034;-71
2021/07/08 19:49:59;;;;;;;4.13;3.17;;;;;;;21.67;46.42;102177.28;10364747;28;20575;-71
2021/07/08 19:55:00;;;;;;;3.22;2.95;;;;;;;21.49;46.78;102180.97;10364536;28;20034;-72
2021/07/08 20:00:00;;;;;;;2.85;2.20;;;;;;;21.43;46.58;102192.97;10362908;28;20040;-71
2021/07/08 20:05:04;;;;;;;3.55;3.25;;;;;;;20.34;46.55;102024.41;10346677;28;20041;-71
2021/07/08 20:10:05;;;;;;;3.38;3.13;;;;;;;21.05;46.93;102188.69;10364801;28;20508;-72
2021/07/08 20:15:06;;;;;;;2.97;2.72;;;;;;;20.94;47.68;102210.69;10366892;28;20108;-71
2021/07/08 20:20:08;;;;;;;3.55;3.25;;;;;;;20.87;47.43;102219.06;10365398;28;20443;-72
2021/07/08 20:25:09;;;;;;;4.70;4.22;;;;;;;20.28;48.13;102149.13;10348929;28;20112;-72
2021/07/08 20:30:10;;;;;;;4.10;3.80;;;;;;;20.56;48.97;102207.19;10365804;28;20164;-72
2021/07/08 20:35:12;;;;;;;3.85;2.97;;;;;;;20.59;48.77;102245.25;10337745;28;20477;-79
2021/07/08 20:40:13;;;;;;;4.57;3.97;;;;;;;20.50;48.96;102230.09;10375712;28;20045;-79
2021/07/08 20:45:13;;;;;;;6.93;3.42;;;;;;;20.12;49.43;102176.19;10378500;28;20120;-79
2021/07/08 20:50:14;;;;;;;3.70;2.97;;;;;;;20.09;49.18;102182.16;10377088;28;20045;-79
2021/07/08 20:55:15;;;;;;;4.72;4.30;;;;;;;20.19;49.77;102220.94;10375727;28;20037;-79
2021/07/08 21:00:16;;;;;;;7.03;4.72;;;;;;;20.17;49.92;102214.03;10377995;28;20037;-77
2021/07/08 21:05:16;;;;;;;5.95;4.28;;;;;;;20.15;50.07;102225.25;10383626;28;20058;-78
2021/07/08 21:10:17;;;;;;;5.10;4.60;;;;;;;19.92;50.13;102194.84;10374846;28;20041;-79
2021/07/08 21:15:17;;;;;;;5.75;4.50;;;;;;;19.99;50.25;102214.84;10368945;28;20057;-80
2021/07/08 21:20:18;;;;;;;5.72;5.10;;;;;;;19.96;50.57;102213.38;10370328;28;20038;-78
2021/07/08 21:25:18;;;;;;;6.93;4.53;;;;;;;19.67;50.79;102183.91;10374928;28;20033;-79
2021/07/08 21:30:19;;;;;;;6.03;4.65;;;;;;;19.82;50.91;102217.38;10370772;28;20046;-79
2021/07/08 21:35:20;;;;;;;7.50;5.43;;;;;;;19.78;51.29;102221.63;10353615;28;20153;-79
2021/07/08 21:40:20;;;;;;;4.88;4.47;;;;;;;19.70;51.44;102222.75;10369495;28;20076;-78
2021/07/08 21:45:23;;;;;;;13.48;5.55;;;;;;;19.67;51.46;102217.72;10369229;28;20048;-78
2021/07/08 21:50:25;;;;;;;6.72;6.03;;;;;;;19.64;51.63;102220.06;10370943;28;20034;-79
2021/07/08 21:55:25;;;;;;;6.95;5.10;;;;;;;19.46;52.22;102187.84;10370014;28;20106;-80
2021/07/08 22:00:26;;;;;;;6.80;5.68;;;;;;;19.35;52.56;102199.59;10375306;28;20167;-80
2021/07/08 22:05:27;;;;;;;12.82;6.20;;;;;;;19.20;53.07;102214.47;10383649;28;20168;-77
2021/07/08 22:10:28;;;;;;;8.32;6.57;;;;;;;19.17;53.29;102225.06;10359709;28;20105;-79
2021/07/08 22:15:28;;;;;;;19.38;6.10;;;;;;;19.07;53.32;102239.28;10380610;28;20161;-80
2021/07/08 22:20:29;;;;;;;10.50;5.95;;;;;;;16.31;53.58;101795.41;10380459;28;20038;-78
2021/07/08 22:25:30;;;;;;;6.95;6.25;;;;;;;18.77;55.00;102228.94;10382187;28;20030;-80
2021/07/08 22:30:30;;;;;;;9.23;5.35;;;;;;;18.81;54.52;102241.16;10379634;28;20044;-79
2021/07/08 22:35:31;;;;;;;12.02;6.68;;;;;;;18.81;54.48;102230.16;10375144;28;20030;-79
2021/07/08 22:40:32;;;;;;;6.20;5.60;;;;;;;18.79;54.10;102240.53;10375833;28;20145;-79
2021/07/08 22:45:32;;;;;;;9.95;5.35;;;;;;;18.68;54.58;102240.34;10374742;28;20095;-79
2021/07/08 22:50:34;;;;;;;11.10;5.55;;;;;;;17.97;54.93;102142.59;10374678;28;20038;-79
2021/07/08 22:55:35;;;;;;;6.15;5.28;;;;;;;18.44;55.13;102214.50;10376194;28;20126;-79
2021/07/08 23:00:35;;;;;;;10.32;6.85;;;;;;;18.53;54.45;102240.63;10374266;28;20441;-79
2021/07/08 23:05:36;;;;;;;19.48;7.18;;;;;;;18.36;55.84;102240.28;10375503;28;20053;-80
2021/07/08 23:10:37;;;;;;;16.05;5.90;;;;;;;18.31;55.37;102234.59;10374541;28;20037;-80
2021/07/08 23:15:37;;;;;;;20.08;6.85;;;;;;;18.16;56.69;102253.22;10380888;28;20084;-79
2021/07/08 23:20:38;;;;;;;8.98;7.78;;;;;;;17.16;56.42;102087.09;10386546;28;20034;-79
2021/07/08 23:25:39;;;;;;;13.07;8.10;;;;;;;18.02;56.60;102233.22;10392461;28;20102;-79
2021/07/08 23:30:39;;;;;;;6.72;5.68;;;;;;;18.08;55.74;102237.84;10388679;28;20044;-78